Time,TemperatureF,DewpointF,PressureIn,WindDirection,WindDirectionDegrees,WindSpeedMPH,WindSpeedGustMPH,Humidity,HourlyPrecipIn,Conditions,Clouds,dailyrainin,SoftwareType,DateUTC
2013-01-25 00:01:00,10.9,3.0,30.86,SW,225,0.0,0.0,70,0.00,,,0.00,WUHU216HW,2013-01-25 05:01:00,
2013-01-25 00:03:00,10.9,3.0,30.85,SW,225,0.0,0.0,70,0.00,,,0.00,WUHU216HW,2013-01-25 05:03:00,
2013-01-25 00:08:00,10.9,3.0,30.85,SW,225,0.0,0.0,70,0.00,,,0.00,WUHU216HW,2013-01-25 05:08:00,
2013-01-25 00:13:00,11.1,3.4,30.85,SW,225,0.0,0.0,71,0.00,,,0.00,WUHU216HW,2013-01-25 05:13:00,
2013-01-25 00:18:00,11.1,3.4,30.85,SW,225,0.0,0.0,71,0.00,,,0.00,WUHU216HW,2013-01-25 05:18:00,
2013-01-25 00:23:00,11.1,3.4,30.85,SW,225,0.0,0.0,71,0.00,,,0.00,WUHU216HW,2013-01-25 05:23:00,
2013-01-25 00:28:00,11.3,3.6,30.84,SW,225,0.0,0.0,71,0.00,,,0.00,WUHU216HW,2013-01-25 05:28:00,
2013-01-25 00:33:00,11.3,3.6,30.84,SW,225,0.0,0.0,71,0.00,,,0.00,WUHU216HW,2013-01-25 05:33:00,
2013-01-25 00:38:00,11.3,3.6,30.84,SW,225,0.0,0.0,71,0.00,,,0.00,WUHU216HW,2013-01-25 05:38:00,
2013-01-25 00:43:00,11.4,3.8,30.84,SW,225,0.0,0.0,71,0.00,,,0.00,WUHU216HW,2013-01-25 05:43:00,
2013-01-25 00:48:00,11.6,4.0,30.84,SW,225,0.0,0.0,71,0.00,,,0.00,WUHU216HW,2013-01-25 05:48:00,
2013-01-25 00:53:00,11.6,4.0,30.83,SW,225,0.0,0.0,71,0.00,,,0.00,WUHU216HW,2013-01-25 05:53:00,
2013-01-25 00:58:00,11.8,4.4,30.83,SW,225,0.0,0.0,72,0.00,,,0.00,WUHU216HW,2013-01-25 05:58:00,
2013-01-25 01:03:00,11.8,4.2,30.82,SW,225,0.0,0.0,71,0.00,,,0.00,WUHU216HW,2013-01-25 06:03:00,
2013-01-25 01:08:00,11.8,4.4,30.83,SW,225,0.0,0.0,72,0.00,,,0.00,WUHU216HW,2013-01-25 06:08:00,
2013-01-25 01:13:00,12.0,4.6,30.83,SW,225,0.0,0.0,72,0.00,,,0.00,WUHU216HW,2013-01-25 06:13:00,
2013-01-25 01:18:00,12.0,4.6,30.82,SW,225,0.0,0.0,72,0.00,,,0.00,WUHU216HW,2013-01-25 06:18:00,
2013-01-25 01:23:00,12.0,4.3,30.82,SW,225,0.0,0.0,71,0.00,,,0.00,WUHU216HW,2013-01-25 06:23:00,
2013-01-25 01:28:00,12.0,4.3,30.82,SW,225,0.0,0.0,72,0.00,,,0.00,WUHU216HW,2013-01-25 06:28:00,
2013-01-25 01:33:00,12.0,4.6,30.82,SW,225,0.0,0.0,72,0.00,,,0.00,WUHU216HW,2013-01-25 06:33:00,
2013-01-25 01:38:00,12.2,4.8,30.82,SW,225,0.0,0.0,72,0.00,,,0.00,WUHU216HW,2013-01-25 06:38:00,
2013-01-25 01:43:00,12.2,4.5,30.82,SW,225,0.0,0.0,71,0.00,,,0.00,WUHU216HW,2013-01-25 06:43:00,
2013-01-25 01:48:00,12.2,4.5,30.82,SW,225,0.0,0.0,71,0.00,,,0.00,WUHU216HW,2013-01-25 06:48:00,
2013-01-25 01:53:00,12.2,4.5,30.81,SW,225,0.0,0.0,71,0.00,,,0.00,WUHU216HW,2013-01-25 06:53:00,
2013-01-25 01:58:00,12.2,4.8,30.81,SW,225,0.0,0.0,72,0.00,,,0.00,WUHU216HW,2013-01-25 06:58:00,
2013-01-25 02:03:00,12.2,4.8,30.80,SW,225,0.0,0.0,72,0.00,,,0.00,WUHU216HW,2013-01-25 07:03:00,
2013-01-25 02:08:00,12.3,5.0,30.79,SW,225,0.0,0.0,72,0.00,,,0.00,WUHU216HW,2013-01-25 07:08:00,
2013-01-25 02:13:00,12.2,4.8,30.79,SW,225,0.0,0.0,72,0.00,,,0.00,WUHU216HW,2013-01-25 07:13:00,
2013-01-25 02:18:00,12.2,4.8,30.79,SW,225,0.0,0.0,72,0.00,,,0.00,WUHU216HW,2013-01-25 07:18:00,
2013-01-25 02:23:00,12.2,4.8,30.79,SW,225,0.0,0.0,72,0.00,,,0.00,WUHU216HW,2013-01-25 07:23:00,
2013-01-25 02:28:00,12.2,4.8,30.78,SW,225,0.0,0.0,72,0.00,,,0.00,WUHU216HW,2013-01-25 07:28:00,
2013-01-25 02:33:00,12.3,5.0,30.78,SW,225,0.0,0.0,72,0.00,,,0.00,WUHU216HW,2013-01-25 07:33:00,
2013-01-25 02:38:00,12.3,5.0,30.78,South,180,0.0,0.0,72,0.00,,,0.00,WUHU216HW,2013-01-25 07:38:00,
2013-01-25 02:44:00,12.5,5.2,30.78,South,180,0.0,0.0,72,0.00,,,0.00,WUHU216HW,2013-01-25 07:44:00,
2013-01-25 02:49:00,12.5,4.9,30.77,South,180,0.0,0.0,71,0.00,,,0.00,WUHU216HW,2013-01-25 07:49:00,
2013-01-25 02:54:00,12.5,4.9,30.77,South,180,0.0,0.0,71,0.00,,,0.00,WUHU216HW,2013-01-25 07:54:00,
2013-01-25 02:59:00,12.7,5.1,30.77,South,180,0.0,0.0,71,0.00,,,0.00,WUHU216HW,2013-01-25 07:59:00,
2013-01-25 03:03:00,12.7,5.1,30.76,South,180,0.0,0.0,71,0.00,,,0.00,WUHU216HW,2013-01-25 08:03:00,
2013-01-25 03:08:00,12.7,5.1,30.76,South,180,0.0,0.0,71,0.00,,,0.00,WUHU216HW,2013-01-25 08:08:00,
2013-01-25 03:13:00,12.7,4.8,30.76,South,180,0.0,0.0,70,0.00,,,0.00,WUHU216HW,2013-01-25 08:13:00,
2013-01-25 03:18:00,12.7,4.8,30.76,South,180,0.0,0.0,70,0.00,,,0.00,WUHU216HW,2013-01-25 08:18:00,
2013-01-25 03:23:00,12.7,4.8,30.76,South,180,0.0,0.0,70,0.00,,,0.00,WUHU216HW,2013-01-25 08:23:00,
2013-01-25 03:29:00,12.7,4.8,30.76,South,180,0.0,0.0,70,0.00,,,0.00,WUHU216HW,2013-01-25 08:29:00,
2013-01-25 03:34:00,12.7,4.8,30.76,South,180,0.0,0.0,70,0.00,,,0.00,WUHU216HW,2013-01-25 08:34:00,
2013-01-25 03:39:00,12.7,4.4,30.76,SSE,158,0.0,0.0,69,0.00,,,0.00,WUHU216HW,2013-01-25 08:39:00,
2013-01-25 03:44:00,12.7,4.4,30.76,SSE,158,0.0,0.0,69,0.00,,,0.00,WUHU216HW,2013-01-25 08:44:00,
2013-01-25 03:49:00,12.7,4.4,30.75,SSE,158,0.0,0.0,69,0.00,,,0.00,WUHU216HW,2013-01-25 08:49:00,
2013-01-25 03:54:00,12.7,4.4,30.75,SSE,158,0.0,0.0,69,0.00,,,0.00,WUHU216HW,2013-01-25 08:54:00,
2013-01-25 03:59:00,12.7,4.4,30.75,SSE,158,0.0,0.0,69,0.00,,,0.00,WUHU216HW,2013-01-25 08:59:00,
2013-01-25 04:04:00,12.7,4.4,30.75,SSE,158,0.0,0.0,69,0.00,,,0.00,WUHU216HW,2013-01-25 09:04:00,
2013-01-25 04:09:00,12.7,4.4,30.74,SSE,158,0.0,0.0,69,0.00,,,0.00,WUHU216HW,2013-01-25 09:09:00,
2013-01-25 04:14:00,12.7,4.4,30.74,SSE,158,0.0,0.0,69,0.00,,,0.00,WUHU216HW,2013-01-25 09:14:00,
2013-01-25 04:19:00,12.7,4.4,30.74,SSE,158,0.0,0.0,69,0.00,,,0.00,WUHU216HW,2013-01-25 09:19:00,
2013-01-25 04:24:00,12.7,4.4,30.73,SSE,158,0.0,0.0,69,0.00,,,0.00,WUHU216HW,2013-01-25 09:24:00,
2013-01-25 04:29:00,12.7,4.4,30.73,SSE,158,0.0,0.0,69,0.00,,,0.00,WUHU216HW,2013-01-25 09:29:00,
2013-01-25 04:34:00,12.9,4.6,30.72,SSE,158,0.0,0.0,69,0.00,,,0.00,WUHU216HW,2013-01-25 09:34:00,
2013-01-25 04:39:00,12.7,4.4,30.72,SSE,158,0.0,0.0,69,0.00,,,0.00,WUHU216HW,2013-01-25 09:39:00,
2013-01-25 04:44:00,12.7,4.4,30.71,SSE,158,0.0,0.0,69,0.00,,,0.00,WUHU216HW,2013-01-25 09:44:00,
2013-01-25 04:49:00,12.7,4.4,30.71,SSE,158,0.0,0.0,69,0.00,,,0.00,WUHU216HW,2013-01-25 09:49:00,
2013-01-25 04:54:00,12.7,4.4,30.71,SSE,158,0.0,0.0,69,0.00,,,0.00,WUHU216HW,2013-01-25 09:54:00,
2013-01-25 04:59:00,12.7,4.4,30.70,SSE,158,0.0,0.0,69,0.00,,,0.00,WUHU216HW,2013-01-25 09:59:00,
2013-01-25 05:04:00,12.9,4.6,30.70,SSE,158,0.0,0.0,69,0.00,,,0.00,WUHU216HW,2013-01-25 10:04:00,
2013-01-25 05:09:00,12.9,4.6,30.70,SSE,158,0.0,0.0,69,0.00,,,0.00,WUHU216HW,2013-01-25 10:09:00,
2013-01-25 05:14:00,12.9,4.6,30.69,SSE,158,0.0,0.0,69,0.00,,,0.00,WUHU216HW,2013-01-25 10:14:00,
2013-01-25 05:19:00,12.9,4.6,30.69,SSE,158,0.0,0.0,69,0.00,,,0.00,WUHU216HW,2013-01-25 10:19:00,
2013-01-25 05:24:00,12.9,4.6,30.69,SSE,158,0.0,0.0,69,0.00,,,0.00,WUHU216HW,2013-01-25 10:24:00,
2013-01-25 05:29:00,12.9,4.6,30.68,SSE,158,0.0,0.0,69,0.00,,,0.00,WUHU216HW,2013-01-25 10:29:00,
2013-01-25 05:34:00,12.9,4.6,30.68,SSE,158,0.0,0.0,69,0.00,,,0.00,WUHU216HW,2013-01-25 10:34:00,
2013-01-25 05:39:00,12.9,4.6,30.68,SSE,158,0.0,0.0,69,0.00,,,0.00,WUHU216HW,2013-01-25 10:39:00,
2013-01-25 05:44:00,13.1,4.8,30.67,SSE,158,0.0,0.0,69,0.00,,,0.00,WUHU216HW,2013-01-25 10:44:00,
2013-01-25 05:49:00,13.1,4.8,30.67,SSE,158,0.0,0.0,69,0.00,,,0.00,WUHU216HW,2013-01-25 10:49:00,
2013-01-25 05:54:00,13.1,4.8,30.67,SSE,158,0.0,0.0,69,0.00,,,0.00,WUHU216HW,2013-01-25 10:54:00,
2013-01-25 05:59:00,13.1,4.8,30.67,SSE,158,0.0,0.0,69,0.00,,,0.00,WUHU216HW,2013-01-25 10:59:00,
2013-01-25 06:04:00,13.1,4.8,30.66,South,180,0.0,0.0,69,0.00,,,0.00,WUHU216HW,2013-01-25 11:04:00,
2013-01-25 06:09:00,13.1,4.8,30.66,South,180,0.0,0.0,69,0.00,,,0.00,WUHU216HW,2013-01-25 11:09:00,
2013-01-25 06:14:00,13.2,5.0,30.65,South,180,0.0,0.0,69,0.00,,,0.00,WUHU216HW,2013-01-25 11:14:00,
2013-01-25 06:19:00,13.2,5.0,30.65,South,180,0.0,0.0,69,0.00,,,0.00,WUHU216HW,2013-01-25 11:19:00,
2013-01-25 06:24:00,13.2,5.0,30.65,South,180,0.0,0.0,69,0.00,,,0.00,WUHU216HW,2013-01-25 11:24:00,
2013-01-25 06:29:00,13.2,5.0,30.65,South,180,0.0,0.0,69,0.00,,,0.00,WUHU216HW,2013-01-25 11:29:00,
2013-01-25 06:34:00,13.2,5.0,30.64,South,180,0.0,0.0,69,0.00,,,0.00,WUHU216HW,2013-01-25 11:34:00,
2013-01-25 06:39:00,13.2,5.3,30.63,South,180,0.0,0.0,70,0.00,,,0.00,WUHU216HW,2013-01-25 11:39:00,
2013-01-25 06:44:00,13.1,5.1,30.63,South,180,0.0,0.0,70,0.00,,,0.00,WUHU216HW,2013-01-25 11:44:00,
2013-01-25 06:49:00,13.1,5.1,30.63,South,180,0.0,0.0,70,0.00,,,0.00,WUHU216HW,2013-01-25 11:49:00,
2013-01-25 06:54:00,13.1,5.1,30.63,South,180,0.0,0.0,70,0.00,,,0.00,WUHU216HW,2013-01-25 11:54:00,
2013-01-25 06:59:00,13.1,5.4,30.63,South,180,0.0,0.0,71,0.00,,,0.00,WUHU216HW,2013-01-25 11:59:00,
2013-01-25 07:04:00,13.1,5.4,30.62,South,180,0.0,0.0,71,0.00,,,0.00,WUHU216HW,2013-01-25 12:04:00,
2013-01-25 07:09:00,13.1,5.4,30.62,South,180,0.0,0.0,71,0.00,,,0.00,WUHU216HW,2013-01-25 12:09:00,
2013-01-25 07:14:00,12.9,5.2,30.62,South,180,0.0,0.0,71,0.00,,,0.00,WUHU216HW,2013-01-25 12:14:00,
2013-01-25 07:19:00,12.9,5.2,30.62,South,180,0.0,0.0,71,0.00,,,0.00,WUHU216HW,2013-01-25 12:19:00,
2013-01-25 07:24:00,12.9,5.5,30.61,South,180,0.0,0.0,72,0.00,,,0.00,WUHU216HW,2013-01-25 12:24:00,
2013-01-25 07:29:00,12.9,5.5,30.61,South,180,0.0,0.0,72,0.00,,,0.00,WUHU216HW,2013-01-25 12:29:00,
2013-01-25 07:34:00,12.9,5.5,30.61,South,180,0.0,0.0,72,0.00,,,0.00,WUHU216HW,2013-01-25 12:34:00,
2013-01-25 07:39:00,12.9,5.5,30.60,South,180,0.0,0.0,72,0.00,,,0.00,WUHU216HW,2013-01-25 12:39:00,
2013-01-25 07:44:00,12.9,5.5,30.60,South,180,0.0,0.0,72,0.00,,,0.00,WUHU216HW,2013-01-25 12:44:00,
2013-01-25 07:49:00,12.7,5.3,30.60,South,180,0.0,0.0,72,0.00,,,0.00,WUHU216HW,2013-01-25 12:49:00,
2013-01-25 07:54:00,12.9,5.5,30.60,South,180,0.0,0.0,72,0.00,,,0.00,WUHU216HW,2013-01-25 12:54:00,
2013-01-25 07:59:00,12.7,5.6,30.60,South,180,0.0,0.0,73,0.00,,,0.00,WUHU216HW,2013-01-25 12:59:00,
2013-01-25 08:04:00,12.7,5.6,30.60,South,180,0.0,0.0,73,0.00,,,0.00,WUHU216HW,2013-01-25 13:04:00,
2013-01-25 08:09:00,12.7,5.6,30.60,South,180,0.0,0.0,73,0.00,,,0.00,WUHU216HW,2013-01-25 13:09:00,
2013-01-25 08:14:00,12.7,5.6,30.60,South,180,0.0,0.0,73,0.00,,,0.00,WUHU216HW,2013-01-25 13:14:00,
2013-01-25 08:19:00,12.7,5.6,30.59,South,180,0.0,0.0,73,0.00,,,0.00,WUHU216HW,2013-01-25 13:19:00,
2013-01-25 08:24:00,12.9,6.1,30.59,South,180,0.0,0.0,74,0.00,,,0.00,WUHU216HW,2013-01-25 13:24:00,
2013-01-25 08:29:00,12.9,6.1,30.58,South,180,0.0,0.0,74,0.00,,,0.00,WUHU216HW,2013-01-25 13:29:00,
2013-01-25 08:34:00,12.9,6.1,30.59,South,180,0.0,0.0,74,0.00,,,0.00,WUHU216HW,2013-01-25 13:34:00,
2013-01-25 08:39:00,12.9,6.1,30.59,South,180,0.0,0.0,74,0.00,,,0.00,WUHU216HW,2013-01-25 13:39:00,
2013-01-25 08:44:00,13.2,6.5,30.58,South,180,0.0,0.0,74,0.00,,,0.00,WUHU216HW,2013-01-25 13:44:00,
2013-01-25 08:49:00,13.2,6.5,30.58,South,180,0.0,0.0,74,0.00,,,0.00,WUHU216HW,2013-01-25 13:49:00,
2013-01-25 08:54:00,13.2,6.5,30.58,South,180,0.0,0.0,74,0.00,,,0.00,WUHU216HW,2013-01-25 13:54:00,
2013-01-25 08:59:00,13.2,6.5,30.58,South,180,0.0,0.0,74,0.00,,,0.00,WUHU216HW,2013-01-25 13:59:00,
2013-01-25 09:04:00,13.2,6.5,30.58,South,180,0.0,0.0,74,0.00,,,0.00,WUHU216HW,2013-01-25 14:04:00,
2013-01-25 09:09:00,13.6,6.8,30.58,South,180,0.0,0.0,74,0.00,,,0.00,WUHU216HW,2013-01-25 14:09:00,
2013-01-25 09:14:00,13.6,7.1,30.57,South,180,0.0,0.0,75,0.00,,,0.00,WUHU216HW,2013-01-25 14:14:00,
2013-01-25 09:19:00,13.6,7.1,30.57,South,180,0.0,0.0,75,0.00,,,0.00,WUHU216HW,2013-01-25 14:19:00,
2013-01-25 09:24:00,13.8,7.3,30.57,South,180,0.0,0.0,75,0.00,,,0.00,WUHU216HW,2013-01-25 14:24:00,
2013-01-25 09:29:00,13.8,7.3,30.56,SSE,158,0.0,0.0,75,0.00,,,0.00,WUHU216HW,2013-01-25 14:29:00,
2013-01-25 09:34:00,13.8,7.3,30.56,SSE,158,0.0,0.0,75,0.00,,,0.00,WUHU216HW,2013-01-25 14:34:00,
2013-01-25 09:39:00,13.8,7.3,30.55,SSE,158,0.0,0.0,75,0.00,,,0.00,WUHU216HW,2013-01-25 14:39:00,
2013-01-25 09:44:00,14.1,7.6,30.55,SSE,158,0.0,0.0,75,0.00,,,0.00,WUHU216HW,2013-01-25 14:44:00,
2013-01-25 09:50:00,14.1,7.9,30.55,SSE,158,0.0,0.0,76,0.00,,,0.00,WUHU216HW,2013-01-25 14:50:00,
2013-01-25 09:55:00,14.1,7.9,30.55,SSE,158,0.0,0.0,76,0.00,,,0.00,WUHU216HW,2013-01-25 14:55:00,
2013-01-25 10:00:00,14.1,7.9,30.54,SSE,158,0.0,0.0,76,0.00,,,0.00,WUHU216HW,2013-01-25 15:00:00,
2013-01-25 10:05:00,14.3,8.1,30.54,SSE,158,0.0,0.0,76,0.00,,,0.00,WUHU216HW,2013-01-25 15:05:00,
2013-01-25 10:10:00,14.5,8.3,30.54,SSE,158,0.0,0.0,76,0.00,,,0.00,WUHU216HW,2013-01-25 15:10:00,
2013-01-25 10:15:00,14.7,8.4,30.53,SSE,158,0.0,0.0,76,0.00,,,0.00,WUHU216HW,2013-01-25 15:15:00,
2013-01-25 10:20:00,14.9,8.6,30.53,SSE,158,0.0,0.0,76,0.00,,,0.00,WUHU216HW,2013-01-25 15:20:00,
2013-01-25 10:25:00,15.0,8.8,30.53,SSE,158,0.0,0.0,76,0.00,,,0.00,WUHU216HW,2013-01-25 15:25:00,
2013-01-25 10:30:00,15.4,9.1,30.53,SW,225,0.0,0.0,76,0.00,,,0.00,WUHU216HW,2013-01-25 15:30:00,
2013-01-25 10:35:00,15.6,9.6,30.53,SW,225,0.0,0.0,77,0.00,,,0.00,WUHU216HW,2013-01-25 15:35:00,
2013-01-25 10:40:00,15.9,10.0,30.53,SW,225,0.0,0.0,77,0.00,,,0.00,WUHU216HW,2013-01-25 15:40:00,
2013-01-25 10:45:00,16.5,10.5,30.53,SW,225,0.0,0.0,77,0.00,,,0.00,WUHU216HW,2013-01-25 15:45:00,
2013-01-25 10:50:00,16.7,10.6,30.53,SW,225,0.0,0.0,77,0.00,,,0.00,WUHU216HW,2013-01-25 15:50:00,
2013-01-25 10:55:00,16.8,10.5,30.53,SW,225,0.0,0.0,76,0.00,,,0.00,WUHU216HW,2013-01-25 15:55:00,
2013-01-25 11:00:00,17.4,11.0,30.52,SW,225,0.0,0.0,76,0.00,,,0.00,WUHU216HW,2013-01-25 16:00:00,
2013-01-25 11:05:00,17.6,11.2,30.52,SW,225,0.0,0.0,76,0.00,,,0.00,WUHU216HW,2013-01-25 16:05:00,
2013-01-25 11:10:00,17.7,11.3,30.52,SW,225,0.0,0.0,76,0.00,,,0.00,WUHU216HW,2013-01-25 16:10:00,
2013-01-25 11:15:00,18.1,11.7,30.52,SW,225,0.0,0.0,76,0.00,,,0.00,WUHU216HW,2013-01-25 16:15:00,
2013-01-25 11:20:00,18.3,11.6,30.52,SW,225,0.0,0.0,75,0.00,,,0.00,WUHU216HW,2013-01-25 16:20:00,
2013-01-25 11:25:00,18.3,11.6,30.51,SW,225,0.0,0.0,75,0.00,,,0.00,WUHU216HW,2013-01-25 16:25:00,
2013-01-25 11:30:00,18.5,11.7,30.51,NE,45,0.0,0.0,75,0.00,,,0.00,WUHU216HW,2013-01-25 16:30:00,
2013-01-25 11:35:00,18.6,11.9,30.51,SW,225,0.0,0.0,75,0.00,,,0.00,WUHU216HW,2013-01-25 16:35:00,
2013-01-25 11:40:00,18.8,12.1,30.51,SSE,158,0.0,0.0,75,0.00,,,0.00,WUHU216HW,2013-01-25 16:40:00,
2013-01-25 11:45:00,19.2,12.4,30.50,South,180,0.0,0.0,75,0.00,,,0.00,WUHU216HW,2013-01-25 16:45:00,
2013-01-25 11:50:00,19.2,12.4,30.50,ENE,68,0.0,0.0,75,0.00,,,0.00,WUHU216HW,2013-01-25 16:50:00,
2013-01-25 11:55:00,19.4,12.6,30.50,SSW,203,0.0,0.0,75,0.00,,,0.00,WUHU216HW,2013-01-25 16:55:00,
2013-01-25 12:00:00,19.5,12.5,30.49,WNW,293,0.0,0.0,74,0.00,,,0.00,WUHU216HW,2013-01-25 17:00:00,
2013-01-25 12:05:00,19.7,12.7,30.48,SSW,203,0.0,0.0,74,0.00,,,0.00,WUHU216HW,2013-01-25 17:05:00,
2013-01-25 12:10:00,19.9,12.8,30.48,SSW,203,0.0,0.0,74,0.00,,,0.00,WUHU216HW,2013-01-25 17:10:00,
2013-01-25 12:15:00,20.3,13.2,30.47,SSW,203,0.0,0.0,74,0.00,,,0.00,WUHU216HW,2013-01-25 17:15:00,
2013-01-25 12:20:00,20.4,13.4,30.47,SSE,158,0.0,0.0,74,0.00,,,0.00,WUHU216HW,2013-01-25 17:20:00,
2013-01-25 12:25:00,20.4,13.4,30.47,West,270,0.0,0.0,74,0.00,,,0.00,WUHU216HW,2013-01-25 17:25:00,
2013-01-25 12:30:00,20.8,13.4,30.47,South,180,0.0,0.0,73,0.00,,,0.00,WUHU216HW,2013-01-25 17:30:00,
2013-01-25 12:35:00,21.0,13.6,30.46,South,180,0.0,0.0,73,0.00,,,0.00,WUHU216HW,2013-01-25 17:35:00,
2013-01-25 12:40:00,21.0,13.6,30.46,SSE,158,0.0,0.0,73,0.00,,,0.00,WUHU216HW,2013-01-25 17:40:00,
2013-01-25 12:45:00,21.0,13.6,30.46,South,180,0.0,0.0,73,0.00,,,0.00,WUHU216HW,2013-01-25 17:45:00,
2013-01-25 12:50:00,21.3,14.0,30.45,WSW,248,0.0,0.0,73,0.00,,,0.00,WUHU216HW,2013-01-25 17:50:00,
2013-01-25 12:55:00,21.3,14.0,30.45,SW,225,0.0,0.0,73,0.00,,,0.00,WUHU216HW,2013-01-25 17:55:00,
2013-01-25 13:00:00,21.3,14.0,30.45,SSW,203,0.0,0.0,73,0.00,,,0.00,WUHU216HW,2013-01-25 18:00:00,
2013-01-25 13:05:00,21.5,13.8,30.45,SSE,158,0.0,0.0,72,0.00,,,0.00,WUHU216HW,2013-01-25 18:05:00,
2013-01-25 13:10:00,21.7,14.0,30.44,South,180,0.0,0.0,72,0.00,,,0.00,WUHU216HW,2013-01-25 18:10:00,
2013-01-25 13:15:00,21.7,14.0,30.44,NE,45,0.0,0.0,72,0.00,,,0.00,WUHU216HW,2013-01-25 18:15:00,
2013-01-25 13:20:00,21.9,14.2,30.43,WSW,248,0.0,0.0,72,0.00,,,0.00,WUHU216HW,2013-01-25 18:20:00,
2013-01-25 13:25:00,21.9,14.2,30.43,WSW,248,0.0,0.0,72,0.00,,,0.00,WUHU216HW,2013-01-25 18:25:00,
2013-01-25 13:30:00,22.2,14.6,30.42,SSE,158,0.0,0.0,72,0.00,,,0.00,WUHU216HW,2013-01-25 18:30:00,
2013-01-25 13:35:00,22.2,14.3,30.42,SSE,158,0.0,0.0,71,0.00,,,0.00,WUHU216HW,2013-01-25 18:35:00,
2013-01-25 13:40:00,22.1,14.1,30.41,South,180,0.0,0.0,71,0.00,,,0.00,WUHU216HW,2013-01-25 18:40:00,
2013-01-25 13:45:00,22.1,14.1,30.41,SSE,158,0.0,0.0,71,0.00,,,0.00,WUHU216HW,2013-01-25 18:45:00,
2013-01-25 13:50:00,22.1,14.1,30.41,South,180,0.0,0.0,71,0.00,,,0.00,WUHU216HW,2013-01-25 18:50:00,
2013-01-25 13:55:00,22.1,14.1,30.41,South,180,0.0,0.0,71,0.00,,,0.00,WUHU216HW,2013-01-25 18:55:00,
2013-01-25 14:00:00,22.2,14.3,30.40,South,180,0.0,0.0,71,0.00,,,0.00,WUHU216HW,2013-01-25 19:00:00,
2013-01-25 14:05:00,22.1,14.1,30.40,South,180,0.0,0.0,71,0.00,,,0.00,WUHU216HW,2013-01-25 19:05:00,
2013-01-25 14:10:00,22.1,14.1,30.40,ESE,113,0.0,0.0,71,0.00,,,0.00,WUHU216HW,2013-01-25 19:10:00,
2013-01-25 14:15:00,22.2,14.3,30.40,NE,45,0.0,0.0,71,0.00,,,0.00,WUHU216HW,2013-01-25 19:15:00,
2013-01-25 14:20:00,22.6,14.6,30.39,NE,45,0.0,0.0,71,0.00,,,0.00,WUHU216HW,2013-01-25 19:20:00,
2013-01-25 14:25:00,22.4,14.4,30.39,NE,45,0.0,0.0,71,0.00,,,0.00,WUHU216HW,2013-01-25 19:25:00,
2013-01-25 14:30:00,22.8,14.8,30.38,ESE,113,0.0,0.0,71,0.00,,,0.00,WUHU216HW,2013-01-25 19:30:00,
2013-01-25 14:35:00,22.8,14.8,30.38,SSE,158,0.0,0.0,71,0.00,,,0.00,WUHU216HW,2013-01-25 19:35:00,
2013-01-25 14:40:00,22.8,14.8,30.38,SSE,158,0.0,0.0,71,0.00,,,0.00,WUHU216HW,2013-01-25 19:40:00,
2013-01-25 14:45:00,22.4,14.4,30.37,WNW,293,0.0,0.0,71,0.00,,,0.00,WUHU216HW,2013-01-25 19:45:00,
2013-01-25 14:50:00,22.2,14.3,30.37,SSE,158,0.0,0.0,71,0.00,,,0.00,WUHU216HW,2013-01-25 19:50:00,
2013-01-25 14:55:00,22.2,14.3,30.37,SSE,158,0.0,0.0,71,0.00,,,0.00,WUHU216HW,2013-01-25 19:55:00,
2013-01-25 15:00:00,22.2,14.3,30.37,SSE,158,0.0,0.0,71,0.00,,,0.00,WUHU216HW,2013-01-25 20:00:00,
2013-01-25 15:05:00,22.2,14.3,30.37,NNW,338,0.0,0.0,71,0.00,,,0.00,WUHU216HW,2013-01-25 20:05:00,
2013-01-25 15:10:00,22.2,14.3,30.37,SE,135,0.0,0.0,71,0.00,,,0.00,WUHU216HW,2013-01-25 20:10:00,
2013-01-25 15:16:00,22.1,14.1,30.37,West,270,0.0,0.0,71,0.00,,,0.00,WUHU216HW,2013-01-25 20:16:00,
2013-01-25 15:22:00,22.1,14.4,30.37,South,180,0.0,0.0,72,0.00,,,0.00,WUHU216HW,2013-01-25 20:22:00,
2013-01-25 15:27:00,22.1,14.1,30.37,SSE,158,0.0,0.0,71,0.00,,,0.00,WUHU216HW,2013-01-25 20:27:00,
2013-01-25 15:32:00,21.9,13.9,30.37,NE,45,0.0,0.0,71,0.00,,,0.00,WUHU216HW,2013-01-25 20:32:00,
2013-01-25 15:37:00,22.1,14.4,30.36,East,90,0.0,0.0,72,0.00,,,0.00,WUHU216HW,2013-01-25 20:37:00,
2013-01-25 15:42:00,21.9,14.2,30.36,SE,135,0.0,0.0,72,0.00,,,0.00,WUHU216HW,2013-01-25 20:42:00,
2013-01-25 15:47:00,21.9,14.2,30.36,South,180,0.0,0.0,72,0.00,,,0.00,WUHU216HW,2013-01-25 20:47:00,
2013-01-25 15:52:00,21.7,14.0,30.36,SW,225,0.0,0.0,72,0.00,,,0.00,WUHU216HW,2013-01-25 20:52:00,
2013-01-25 15:57:00,21.7,14.0,30.36,SSW,203,0.0,0.0,72,0.00,,,0.00,WUHU216HW,2013-01-25 20:57:00,
2013-01-25 16:02:00,21.7,14.0,30.36,SSW,203,0.0,0.0,72,0.00,,,0.00,WUHU216HW,2013-01-25 21:02:00,
2013-01-25 16:07:00,21.5,13.8,30.36,South,180,0.0,0.0,72,0.00,,,0.00,WUHU216HW,2013-01-25 21:07:00,
2013-01-25 16:12:00,21.5,13.8,30.37,NNE,23,0.0,0.0,72,0.00,,,0.00,WUHU216HW,2013-01-25 21:12:00,
2013-01-25 16:17:00,21.3,13.7,30.37,NNE,23,0.0,0.0,72,0.00,,,0.00,WUHU216HW,2013-01-25 21:17:00,
2013-01-25 16:22:00,21.3,13.7,30.37,SE,135,0.0,0.0,72,0.00,,,0.00,WUHU216HW,2013-01-25 21:22:00,
2013-01-25 16:27:00,21.3,13.7,30.37,WSW,248,0.0,0.0,72,0.00,,,0.00,WUHU216HW,2013-01-25 21:27:00,
2013-01-25 16:32:00,21.3,13.7,30.37,South,180,0.0,0.0,72,0.00,,,0.00,WUHU216HW,2013-01-25 21:32:00,
2013-01-25 16:37:00,21.3,14.0,30.36,South,180,0.0,0.0,73,0.00,,,0.00,WUHU216HW,2013-01-25 21:37:00,
2013-01-25 16:42:00,21.2,13.8,30.37,SE,135,0.0,0.0,73,0.00,,,0.00,WUHU216HW,2013-01-25 21:42:00,
2013-01-25 16:47:00,21.0,13.6,30.37,SE,135,0.0,0.0,73,0.00,,,0.00,WUHU216HW,2013-01-25 21:47:00,
2013-01-25 16:52:00,21.0,13.6,30.37,SE,135,0.0,0.0,73,0.00,,,0.00,WUHU216HW,2013-01-25 21:52:00,
2013-01-25 16:57:00,21.0,13.6,30.36,SE,135,0.0,0.0,73,0.00,,,0.00,WUHU216HW,2013-01-25 21:57:00,
2013-01-25 17:02:00,20.8,13.4,30.37,SSE,158,0.0,0.0,73,0.00,,,0.00,WUHU216HW,2013-01-25 22:02:00,
2013-01-25 17:07:00,20.8,13.4,30.37,ESE,113,0.0,0.0,73,0.00,,,0.00,WUHU216HW,2013-01-25 22:07:00,
2013-01-25 17:12:00,20.8,13.7,30.37,SSE,158,0.0,0.0,74,0.00,,,0.00,WUHU216HW,2013-01-25 22:12:00,
2013-01-25 17:17:00,20.6,13.6,30.37,SSE,158,0.0,0.0,74,0.00,,,0.00,WUHU216HW,2013-01-25 22:17:00,
2013-01-25 17:22:00,20.4,13.4,30.37,SSE,158,0.0,0.0,74,0.00,,,0.00,WUHU216HW,2013-01-25 22:22:00,
2013-01-25 17:27:00,20.4,13.7,30.37,SSE,158,0.0,0.0,75,0.00,,,0.00,WUHU216HW,2013-01-25 22:27:00,
2013-01-25 17:32:00,20.4,13.7,30.37,South,180,0.0,0.0,75,0.00,,,0.00,WUHU216HW,2013-01-25 22:32:00,
2013-01-25 17:37:00,20.3,13.5,30.37,South,180,0.0,0.0,75,0.00,,,0.00,WUHU216HW,2013-01-25 22:37:00,
2013-01-25 17:42:00,20.3,13.5,30.37,South,180,0.0,0.0,75,0.00,,,0.00,WUHU216HW,2013-01-25 22:42:00,
2013-01-25 17:47:00,20.1,13.3,30.37,WSW,248,0.0,0.0,75,0.00,,,0.00,WUHU216HW,2013-01-25 22:47:00,
2013-01-25 17:52:00,20.1,13.3,30.37,WSW,248,0.0,0.0,75,0.00,,,0.00,WUHU216HW,2013-01-25 22:52:00,
2013-01-25 17:57:00,20.1,13.6,30.38,WSW,248,0.0,0.0,76,0.00,,,0.00,WUHU216HW,2013-01-25 22:57:00,
2013-01-25 18:02:00,19.9,13.4,30.38,WSW,248,0.0,0.0,76,0.00,,,0.00,WUHU216HW,2013-01-25 23:02:00,
2013-01-25 18:07:00,19.9,13.4,30.38,WSW,248,0.0,0.0,76,0.00,,,0.00,WUHU216HW,2013-01-25 23:07:00,
2013-01-25 18:12:00,19.9,13.4,30.38,WSW,248,0.0,0.0,76,0.00,,,0.00,WUHU216HW,2013-01-25 23:12:00,
2013-01-25 18:17:00,19.9,13.4,30.38,WSW,248,0.0,0.0,76,0.00,,,0.00,WUHU216HW,2013-01-25 23:17:00,
2013-01-25 18:22:00,19.7,13.3,30.38,WSW,248,0.0,0.0,76,0.00,,,0.00,WUHU216HW,2013-01-25 23:22:00,
2013-01-25 18:27:00,19.7,13.3,30.38,WSW,248,0.0,0.0,76,0.00,,,0.00,WUHU216HW,2013-01-25 23:27:00,
2013-01-25 18:32:00,19.5,13.1,30.38,WSW,248,0.0,0.0,76,0.00,,,0.00,WUHU216HW,2013-01-25 23:32:00,
2013-01-25 18:37:00,19.5,13.1,30.38,WSW,248,0.0,0.0,76,0.00,,,0.00,WUHU216HW,2013-01-25 23:37:00,
2013-01-25 18:42:00,19.5,13.1,30.38,WSW,248,0.0,0.0,76,0.00,,,0.00,WUHU216HW,2013-01-25 23:42:00,
2013-01-25 18:47:00,19.5,13.1,30.38,WSW,248,0.0,0.0,76,0.00,,,0.00,WUHU216HW,2013-01-25 23:47:00,
2013-01-25 18:52:00,19.5,13.4,30.38,WSW,248,0.0,0.0,77,0.00,,,0.00,WUHU216HW,2013-01-25 23:52:00,
2013-01-25 18:57:00,19.5,13.4,30.38,WSW,248,0.0,0.0,77,0.00,,,0.00,WUHU216HW,2013-01-25 23:57:00,
2013-01-25 19:02:00,19.5,13.4,30.38,WSW,248,0.0,0.0,77,0.00,,,0.00,WUHU216HW,2013-01-26 00:02:00,
2013-01-25 19:07:00,19.5,13.4,30.38,WSW,248,0.0,0.0,77,0.00,,,0.00,WUHU216HW,2013-01-26 00:07:00,
2013-01-25 19:12:00,19.5,13.4,30.38,WSW,248,0.0,0.0,77,0.00,,,0.00,WUHU216HW,2013-01-26 00:12:00,
2013-01-25 19:17:00,19.5,13.4,30.38,WSW,248,0.0,0.0,77,0.00,,,0.00,WUHU216HW,2013-01-26 00:17:00,
2013-01-25 19:22:00,19.5,13.4,30.38,WSW,248,0.0,0.0,77,0.00,,,0.00,WUHU216HW,2013-01-26 00:22:00,
2013-01-25 19:27:00,19.4,13.2,30.38,WSW,248,0.0,0.0,77,0.00,,,0.00,WUHU216HW,2013-01-26 00:27:00,
2013-01-25 19:32:00,19.4,13.2,30.38,WSW,248,0.0,0.0,77,0.00,,,0.00,WUHU216HW,2013-01-26 00:32:00,
2013-01-25 19:37:00,19.2,13.3,30.39,WSW,248,0.0,0.0,78,0.00,,,0.00,WUHU216HW,2013-01-26 00:37:00,
2013-01-25 19:42:00,19.2,13.3,30.38,WSW,248,0.0,0.0,78,0.00,,,0.00,WUHU216HW,2013-01-26 00:42:00,
2013-01-25 19:47:00,19.2,13.3,30.38,WSW,248,0.0,0.0,78,0.00,,,0.00,WUHU216HW,2013-01-26 00:47:00,
2013-01-25 19:52:00,19.2,13.3,30.38,WSW,248,0.0,0.0,78,0.00,,,0.00,WUHU216HW,2013-01-26 00:52:00,
2013-01-25 19:57:00,19.2,13.3,30.38,WSW,248,0.0,0.0,78,0.00,,,0.00,WUHU216HW,2013-01-26 00:57:00,
2013-01-25 20:02:00,19.0,13.2,30.38,WSW,248,0.0,0.0,78,0.00,,,0.00,WUHU216HW,2013-01-26 01:02:00,
2013-01-25 20:07:00,19.0,13.2,30.38,WSW,248,0.0,0.0,78,0.00,,,0.00,WUHU216HW,2013-01-26 01:07:00,
2013-01-25 20:12:00,19.0,13.2,30.38,WSW,248,0.0,0.0,78,0.00,,,0.00,WUHU216HW,2013-01-26 01:12:00,
2013-01-25 20:17:00,19.0,13.2,30.38,WSW,248,0.0,0.0,78,0.00,,,0.00,WUHU216HW,2013-01-26 01:17:00,
2013-01-25 20:22:00,19.0,13.2,30.39,WSW,248,0.0,0.0,78,0.00,,,0.00,WUHU216HW,2013-01-26 01:22:00,
2013-01-25 20:27:00,19.0,13.2,30.39,WSW,248,0.0,0.0,78,0.00,,,0.00,WUHU216HW,2013-01-26 01:27:00,
2013-01-25 20:32:00,19.0,13.2,30.38,WSW,248,0.0,0.0,78,0.00,,,0.00,WUHU216HW,2013-01-26 01:32:00,
2013-01-25 20:37:00,19.0,13.2,30.38,WSW,248,0.0,0.0,78,0.00,,,0.00,WUHU216HW,2013-01-26 01:37:00,
2013-01-25 20:42:00,18.8,13.0,30.38,WSW,248,0.0,0.0,78,0.00,,,0.00,WUHU216HW,2013-01-26 01:42:00,
2013-01-25 20:47:00,18.8,13.0,30.38,WSW,248,0.0,0.0,78,0.00,,,0.00,WUHU216HW,2013-01-26 01:47:00,
2013-01-25 20:52:00,18.8,13.0,30.38,WSW,248,0.0,0.0,78,0.00,,,0.00,WUHU216HW,2013-01-26 01:52:00,
2013-01-25 20:57:00,18.6,12.8,30.38,WSW,248,0.0,0.0,78,0.00,,,0.00,WUHU216HW,2013-01-26 01:57:00,
2013-01-25 21:02:00,18.6,12.8,30.37,WSW,248,0.0,0.0,78,0.00,,,0.00,WUHU216HW,2013-01-26 02:02:00,
2013-01-25 21:07:00,18.6,12.8,30.38,WSW,248,0.0,0.0,78,0.00,,,0.00,WUHU216HW,2013-01-26 02:07:00,
2013-01-25 21:12:00,18.6,12.8,30.38,WSW,248,0.0,0.0,78,0.00,,,0.00,WUHU216HW,2013-01-26 02:12:00,
2013-01-25 21:17:00,18.6,12.8,30.37,WSW,248,0.0,0.0,78,0.00,,,0.00,WUHU216HW,2013-01-26 02:17:00,
2013-01-25 21:22:00,18.6,12.8,30.38,WSW,248,0.0,0.0,78,0.00,,,0.00,WUHU216HW,2013-01-26 02:22:00,
2013-01-25 21:27:00,18.6,12.8,30.37,WSW,248,0.0,0.0,78,0.00,,,0.00,WUHU216HW,2013-01-26 02:27:00,
2013-01-25 21:32:00,18.6,12.8,30.38,WSW,248,0.0,0.0,78,0.00,,,0.00,WUHU216HW,2013-01-26 02:32:00,
2013-01-25 21:37:00,18.6,12.8,30.38,WSW,248,0.0,0.0,78,0.00,,,0.00,WUHU216HW,2013-01-26 02:37:00,
2013-01-25 21:41:00,18.6,12.8,30.38,WSW,248,0.0,0.0,78,0.00,,,0.00,WUHU216HW,2013-01-26 02:41:00,
2013-01-25 21:47:00,18.5,12.6,30.38,WSW,248,0.0,0.0,78,0.00,,,0.00,WUHU216HW,2013-01-26 02:47:00,
2013-01-25 21:51:00,18.5,12.6,30.38,WSW,248,0.0,0.0,78,0.00,,,0.00,WUHU216HW,2013-01-26 02:51:00,
2013-01-25 21:56:00,18.5,12.6,30.38,WSW,248,0.0,0.0,78,0.00,,,0.00,WUHU216HW,2013-01-26 02:56:00,
2013-01-25 22:01:00,18.5,12.6,30.38,WSW,248,0.0,0.0,78,0.00,,,0.00,WUHU216HW,2013-01-26 03:01:00,
2013-01-25 22:06:00,18.5,12.6,30.39,WSW,248,0.0,0.0,78,0.00,,,0.00,WUHU216HW,2013-01-26 03:06:00,
2013-01-25 22:11:00,18.5,12.9,30.39,WSW,248,0.0,0.0,79,0.00,,,0.00,WUHU216HW,2013-01-26 03:11:00,
2013-01-25 22:16:00,18.5,12.9,30.39,WSW,248,0.0,0.0,79,0.00,,,0.00,WUHU216HW,2013-01-26 03:16:00,
2013-01-25 22:21:00,18.5,12.9,30.39,WSW,248,0.0,0.0,79,0.00,,,0.00,WUHU216HW,2013-01-26 03:21:00,
2013-01-25 22:26:00,18.5,12.9,30.39,WSW,248,0.0,0.0,79,0.00,,,0.00,WUHU216HW,2013-01-26 03:26:00,
2013-01-25 22:31:00,18.3,12.7,30.39,WSW,248,0.0,0.0,79,0.00,,,0.00,WUHU216HW,2013-01-26 03:31:00,
2013-01-25 22:36:00,18.3,12.7,30.39,WSW,248,0.0,0.0,79,0.00,,,0.00,WUHU216HW,2013-01-26 03:36:00,
2013-01-25 22:42:00,18.3,12.7,30.39,WSW,248,0.0,0.0,79,0.00,,,0.00,WUHU216HW,2013-01-26 03:42:00,
2013-01-25 22:47:00,18.3,12.7,30.39,WSW,248,0.0,0.0,79,0.00,,,0.00,WUHU216HW,2013-01-26 03:47:00,
2013-01-25 22:53:00,18.3,12.7,30.39,WSW,248,0.0,0.0,79,0.00,,,0.00,WUHU216HW,2013-01-26 03:53:00,
2013-01-25 22:58:00,18.3,12.7,30.39,WSW,248,0.0,0.0,79,0.00,,,0.00,WUHU216HW,2013-01-26 03:58:00,
2013-01-25 23:03:00,18.3,12.7,30.39,WSW,248,0.0,0.0,79,0.00,,,0.00,WUHU216HW,2013-01-26 04:03:00,
2013-01-25 23:08:00,18.3,12.7,30.39,WSW,248,0.0,0.0,79,0.00,,,0.00,WUHU216HW,2013-01-26 04:08:00,
2013-01-25 23:13:00,18.3,12.7,30.39,WSW,248,0.0,0.0,79,0.00,,,0.00,WUHU216HW,2013-01-26 04:13:00,
2013-01-25 23:18:00,18.3,12.7,30.39,WSW,248,0.0,0.0,79,0.00,,,0.00,WUHU216HW,2013-01-26 04:18:00,
2013-01-25 23:23:00,18.3,12.7,30.39,WSW,248,0.0,0.0,79,0.00,,,0.00,WUHU216HW,2013-01-26 04:23:00,
2013-01-25 23:28:00,18.3,12.7,30.39,WSW,248,0.0,0.0,79,0.00,,,0.00,WUHU216HW,2013-01-26 04:28:00,
2013-01-25 23:33:00,18.3,12.7,30.40,WSW,248,0.0,0.0,79,0.00,,,0.00,WUHU216HW,2013-01-26 04:33:00,
2013-01-25 23:38:00,18.3,12.7,30.39,WSW,248,0.0,0.0,79,0.00,,,0.00,WUHU216HW,2013-01-26 04:38:00,
2013-01-25 23:43:00,18.1,12.6,30.39,WSW,248,0.0,0.0,79,0.00,,,0.00,WUHU216HW,2013-01-26 04:43:00,
2013-01-25 23:48:00,18.1,12.6,30.40,WSW,248,0.0,0.0,79,0.00,,,0.00,WUHU216HW,2013-01-26 04:48:00,
2013-01-25 23:53:00,18.1,12.6,30.40,WSW,248,0.0,0.0,79,0.00,,,0.00,WUHU216HW,2013-01-26 04:53:00,
2013-01-25 23:58:00,18.1,12.6,30.40,WSW,248,0.0,0.0,79,0.00,,,0.00,WUHU216HW,2013-01-26 04:58:00,